sensor_id;sensor_type;location;lat;lon;timestamp;temperature;humidity
19224;DHT22;9746;47.180;9.776;2023-05-07T05:51:32;13.10;99.90
19224;DHT22;9746;47.180;9.776;2023-05-07T05:53:59;13.30;99.90
19224;DHT22;9746;47.180;9.776;2023-05-07T05:56:36;13.30;99.90
19224;DHT22;9746;47.180;9.776;2023-05-07T05:59:04;13.50;99.90
19224;DHT22;9746;47.180;9.776;2023-05-07T06:01:33;13.60;99.90
19224;DHT22;9746;47.180;9.776;2023-05-07T06:04:01;13.70;99.90
19224;DHT22;9746;47.180;9.776;2023-05-07T06:06:33;13.80;99.90
19224;DHT22;9746;47.180;9.776;2023-05-07T06:09:01;13.90;99.90
19224;DHT22;9746;47.180;9.776;2023-05-07T06:11:40;13.90;99.90
19224;DHT22;9746;47.180;9.776;2023-05-07T06:14:08;14.00;99.90
19224;DHT22;9746;47.180;9.776;2023-05-07T06:16:48;14.10;99.90
19224;DHT22;9746;47.180;9.776;2023-05-07T06:19:15;14.10;99.90
19224;DHT22;9746;47.180;9.776;2023-05-07T06:22:05;14.30;99.90
19224;DHT22;9746;47.180;9.776;2023-05-07T06:24:32;14.40;99.90
19224;DHT22;9746;47.180;9.776;2023-05-07T06:27:02;14.50;99.90
19224;DHT22;9746;47.180;9.776;2023-05-07T06:29:29;14.70;99.90
19224;DHT22;9746;47.180;9.776;2023-05-07T06:32:13;14.90;99.90
19224;DHT22;9746;47.180;9.776;2023-05-07T06:34:42;15.10;99.90
19224;DHT22;9746;47.180;9.776;2023-05-07T06:40:19;15.60;99.90
19224;DHT22;9746;47.180;9.776;2023-05-07T06:45:40;16.10;99.90
19224;DHT22;9746;47.180;9.776;2023-05-07T06:48:08;16.20;99.90
19224;DHT22;9746;47.180;9.776;2023-05-07T06:50:35;16.50;99.90
19224;DHT22;9746;47.180;9.776;2023-05-07T06:53:03;16.60;99.90
19224;DHT22;9746;47.180;9.776;2023-05-07T06:55:31;16.80;99.90
19224;DHT22;9746;47.180;9.776;2023-05-07T06:58:00;17.00;99.90
19224;DHT22;9746;47.180;9.776;2023-05-07T07:00:27;17.20;99.90
19224;DHT22;9746;47.180;9.776;2023-05-07T07:03:27;17.30;99.90
19224;DHT22;9746;47.180;9.776;2023-05-07T07:06:00;17.40;99.90
19224;DHT22;9746;47.180;9.776;2023-05-07T07:08:29;17.50;99.90
19224;DHT22;9746;47.180;9.776;2023-05-07T07:10:58;17.60;99.90
19224;DHT22;9746;47.180;9.776;2023-05-07T07:13:25;17.70;99.90
19224;DHT22;9746;47.180;9.776;2023-05-07T07:15:53;17.80;99.90
19224;DHT22;9746;47.180;9.776;2023-05-07T07:18:20;17.90;99.90
19224;DHT22;9746;47.180;9.776;2023-05-07T07:20:48;17.90;99.90
19224;DHT22;9746;47.180;9.776;2023-05-07T07:23:15;17.90;99.90
19224;DHT22;9746;47.180;9.776;2023-05-07T07:25:42;17.90;99.90
19224;DHT22;9746;47.180;9.776;2023-05-07T07:31:33;17.90;99.90
19224;DHT22;9746;47.180;9.776;2023-05-07T07:34:01;17.90;99.90
19224;DHT22;9746;47.180;9.776;2023-05-07T07:36:36;17.90;99.90
19224;DHT22;9746;47.180;9.776;2023-05-07T07:39:03;17.90;99.90
19224;DHT22;9746;47.180;9.776;2023-05-07T07:41:37;17.90;99.90
19224;DHT22;9746;47.180;9.776;2023-05-07T07:44:04;17.90;99.90
19224;DHT22;9746;47.180;9.776;2023-05-07T07:46:44;18.00;99.90
19224;DHT22;9746;47.180;9.776;2023-05-07T07:49:12;18.10;99.90
19224;DHT22;9746;47.180;9.776;2023-05-07T07:51:55;18.20;99.90
19224;DHT22;9746;47.180;9.776;2023-05-07T07:54:25;18.30;99.90
19224;DHT22;9746;47.180;9.776;2023-05-07T07:56:52;18.40;99.90
19224;DHT22;9746;47.180;9.776;2023-05-07T07:59:20;18.40;99.90
19224;DHT22;9746;47.180;9.776;2023-05-07T08:01:50;18.30;99.90
19224;DHT22;9746;47.180;9.776;2023-05-07T08:04:19;18.30;99.90
19224;DHT22;9746;47.180;9.776;2023-05-07T08:06:54;18.10;99.90
19224;DHT22;9746;47.180;9.776;2023-05-07T08:09:21;18.00;99.90
19224;DHT22;9746;47.180;9.776;2023-05-07T08:11:55;18.00;99.90
19224;DHT22;9746;47.180;9.776;2023-05-07T08:14:23;18.10;99.90
19224;DHT22;9746;47.180;9.776;2023-05-07T08:19:58;18.30;99.90
19224;DHT22;9746;47.180;9.776;2023-05-07T08:22:36;18.40;99.90
19224;DHT22;9746;47.180;9.776;2023-05-07T08:25:04;18.40;99.90
19224;DHT22;9746;47.180;9.776;2023-05-07T08:27:38;18.40;99.90
19224;DHT22;9746;47.180;9.776;2023-05-07T08:30:07;18.40;99.90
19224;DHT22;9746;47.180;9.776;2023-05-07T08:32:36;18.30;99.90
19224;DHT22;9746;47.180;9.776;2023-05-07T08:35:06;18.10;99.90
19224;DHT22;9746;47.180;9.776;2023-05-07T08:37:36;18.00;99.90
19224;DHT22;9746;47.180;9.776;2023-05-07T08:40:07;17.80;99.90
19224;DHT22;9746;47.180;9.776;2023-05-07T08:42:40;17.50;99.90
19224;DHT22;9746;47.180;9.776;2023-05-07T08:45:09;17.20;99.90
19224;DHT22;9746;47.180;9.776;2023-05-07T08:47:44;17.10;99.90
19224;DHT22;9746;47.180;9.776;2023-05-07T08:50:15;16.70;99.90
19224;DHT22;9746;47.180;9.776;2023-05-07T08:52:56;16.10;99.90
19224;DHT22;9746;47.180;9.776;2023-05-07T08:55:25;15.90;99.90
19224;DHT22;9746;47.180;9.776;2023-05-07T08:58:07;15.80;99.90
19224;DHT22;9746;47.180;9.776;2023-05-07T09:00:35;15.70;99.90
19224;DHT22;9746;47.180;9.776;2023-05-07T09:03:16;15.70;99.90
19224;DHT22;9746;47.180;9.776;2023-05-07T09:05:45;15.70;99.90
19224;DHT22;9746;47.180;9.776;2023-05-07T09:08:24;15.80;99.90
19224;DHT22;9746;47.180;9.776;2023-05-07T09:10:53;15.80;99.90
19224;DHT22;9746;47.180;9.776;2023-05-07T09:13:39;15.80;99.90
19224;DHT22;9746;47.180;9.776;2023-05-07T09:16:10;15.80;99.90
19224;DHT22;9746;47.180;9.776;2023-05-07T09:18:44;15.80;99.90
19224;DHT22;9746;47.180;9.776;2023-05-07T09:21:18;15.80;99.90
19224;DHT22;9746;47.180;9.776;2023-05-07T09:23:57;15.80;99.90
19224;DHT22;9746;47.180;9.776;2023-05-07T09:26:25;15.80;99.90
19224;DHT22;9746;47.180;9.776;2023-05-07T09:29:15;15.90;99.90
19224;DHT22;9746;47.180;9.776;2023-05-07T09:31:54;16.00;99.90
19224;DHT22;9746;47.180;9.776;2023-05-07T09:34:28;16.10;99.90
19224;DHT22;9746;47.180;9.776;2023-05-07T09:37:13;16.10;99.90
19224;DHT22;9746;47.180;9.776;2023-05-07T09:39:43;16.10;99.90
19224;DHT22;9746;47.180;9.776;2023-05-07T09:42:16;16.10;99.90
19224;DHT22;9746;47.180;9.776;2023-05-07T09:44:56;16.10;99.90
19224;DHT22;9746;47.180;9.776;2023-05-07T09:47:32;16.10;99.90
19224;DHT22;9746;47.180;9.776;2023-05-07T09:50:06;16.10;99.90
19224;DHT22;9746;47.180;9.776;2023-05-07T09:52:46;15.90;99.90
19224;DHT22;9746;47.180;9.776;2023-05-07T09:55:16;15.70;99.90
19224;DHT22;9746;47.180;9.776;2023-05-07T09:57:49;15.60;99.90
19224;DHT22;9746;47.180;9.776;2023-05-07T10:00:22;15.50;99.90
19224;DHT22;9746;47.180;9.776;2023-05-07T10:02:58;15.50;99.90
19224;DHT22;9746;47.180;9.776;2023-05-07T10:05:36;15.60;99.90
19224;DHT22;9746;47.180;9.776;2023-05-07T10:08:10;15.70;99.90
19224;DHT22;9746;47.180;9.776;2023-05-07T10:10:48;15.80;99.90
19224;DHT22;9746;47.180;9.776;2023-05-07T10:13:20;16.00;99.90
19224;DHT22;9746;47.180;9.776;2023-05-07T10:15:51;16.20;99.90
19224;DHT22;9746;47.180;9.776;2023-05-07T10:18:40;16.30;99.90
19224;DHT22;9746;47.180;9.776;2023-05-07T10:21:13;16.40;99.90
19224;DHT22;9746;47.180;9.776;2023-05-07T10:23:45;16.60;99.90
19224;DHT22;9746;47.180;9.776;2023-05-07T10:26:14;16.70;99.90
19224;DHT22;9746;47.180;9.776;2023-05-07T10:28:48;16.90;99.90
19224;DHT22;9746;47.180;9.776;2023-05-07T10:31:52;17.00;99.90
19224;DHT22;9746;47.180;9.776;2023-05-07T10:34:34;17.30;99.90
19224;DHT22;9746;47.180;9.776;2023-05-07T10:37:03;17.50;99.90
19224;DHT22;9746;47.180;9.776;2023-05-07T10:42:59;18.00;99.90
19224;DHT22;9746;47.180;9.776;2023-05-07T10:45:28;18.40;99.90
19224;DHT22;9746;47.180;9.776;2023-05-07T10:48:10;18.70;99.90
19224;DHT22;9746;47.180;9.776;2023-05-07T10:50:39;18.90;99.90
19224;DHT22;9746;47.180;9.776;2023-05-07T10:53:25;19.00;99.90
19224;DHT22;9746;47.180;9.776;2023-05-07T10:56:25;19.40;99.90
19224;DHT22;9746;47.180;9.776;2023-05-07T10:59:31;19.80;99.90
19224;DHT22;9746;47.180;9.776;2023-05-07T11:02:00;20.10;99.90
19224;DHT22;9746;47.180;9.776;2023-05-07T11:04:35;20.40;99.90
19224;DHT22;9746;47.180;9.776;2023-05-07T11:07:28;20.70;99.90
19224;DHT22;9746;47.180;9.776;2023-05-07T11:10:05;21.40;99.90
19224;DHT22;9746;47.180;9.776;2023-05-07T11:12:55;21.90;99.90
19224;DHT22;9746;47.180;9.776;2023-05-07T11:15:38;22.30;99.90
19224;DHT22;9746;47.180;9.776;2023-05-07T11:18:16;22.60;99.90
19224;DHT22;9746;47.180;9.776;2023-05-07T11:20:49;23.20;99.90
19224;DHT22;9746;47.180;9.776;2023-05-07T11:26:44;24.20;99.90
19224;DHT22;9746;47.180;9.776;2023-05-07T11:29:30;24.90;99.90
19224;DHT22;9746;47.180;9.776;2023-05-07T11:32:00;25.20;99.90
19224;DHT22;9746;47.180;9.776;2023-05-07T11:34:45;25.60;99.90
19224;DHT22;9746;47.180;9.776;2023-05-07T11:37:17;25.90;99.90
19224;DHT22;9746;47.180;9.776;2023-05-07T11:40:17;26.20;99.90
19224;DHT22;9746;47.180;9.776;2023-05-07T11:42:44;26.80;99.90
19224;DHT22;9746;47.180;9.776;2023-05-07T11:45:12;27.50;99.90
19224;DHT22;9746;47.180;9.776;2023-05-07T11:47:53;28.10;99.90
19224;DHT22;9746;47.180;9.776;2023-05-07T11:50:22;28.90;99.90
19224;DHT22;9746;47.180;9.776;2023-05-07T11:52:53;29.40;99.90
19224;DHT22;9746;47.180;9.776;2023-05-07T11:55:21;30.00;99.90
19224;DHT22;9746;47.180;9.776;2023-05-07T11:57:54;30.70;99.90
19224;DHT22;9746;47.180;9.776;2023-05-07T12:00:21;31.30;99.90
19224;DHT22;9746;47.180;9.776;2023-05-07T12:05:41;32.90;99.90
19224;DHT22;9746;47.180;9.776;2023-05-07T12:08:17;33.80;99.90
19224;DHT22;9746;47.180;9.776;2023-05-07T12:10:47;34.40;99.90
19224;DHT22;9746;47.180;9.776;2023-05-07T12:16:32;33.10;97.50
19224;DHT22;9746;47.180;9.776;2023-05-07T12:19:12;33.00;99.00
19224;DHT22;9746;47.180;9.776;2023-05-07T12:21:41;32.90;97.10
19224;DHT22;9746;47.180;9.776;2023-05-07T12:24:15;32.80;95.80
19224;DHT22;9746;47.180;9.776;2023-05-07T12:26:43;33.00;95.80
19224;DHT22;9746;47.180;9.776;2023-05-07T12:29:26;32.90;95.50
19224;DHT22;9746;47.180;9.776;2023-05-07T12:31:54;33.10;93.60
19224;DHT22;9746;47.180;9.776;2023-05-07T12:34:24;32.40;93.90
19224;DHT22;9746;47.180;9.776;2023-05-07T12:36:53;31.50;93.80
19224;DHT22;9746;47.180;9.776;2023-05-07T12:39:31;31.30;94.20
19224;DHT22;9746;47.180;9.776;2023-05-07T12:42:00;31.90;93.00
19224;DHT22;9746;47.180;9.776;2023-05-07T12:44:31;32.80;93.30
19224;DHT22;9746;47.180;9.776;2023-05-07T12:47:01;33.00;91.40
19224;DHT22;9746;47.180;9.776;2023-05-07T12:49:34;33.40;91.00
19224;DHT22;9746;47.180;9.776;2023-05-07T12:52:05;34.70;90.70
19224;DHT22;9746;47.180;9.776;2023-05-07T12:57:29;36.70;87.40
19224;DHT22;9746;47.180;9.776;2023-05-07T13:00:08;37.70;85.40
19224;DHT22;9746;47.180;9.776;2023-05-07T13:02:38;38.60;78.10
19224;DHT22;9746;47.180;9.776;2023-05-07T13:05:13;39.00;79.30
19224;DHT22;9746;47.180;9.776;2023-05-07T13:07:52;39.80;77.50
19224;DHT22;9746;47.180;9.776;2023-05-07T13:13:16;41.10;69.10
19224;DHT22;9746;47.180;9.776;2023-05-07T13:15:44;40.30;68.10
19224;DHT22;9746;47.180;9.776;2023-05-07T13:18:11;39.70;67.90
19224;DHT22;9746;47.180;9.776;2023-05-07T13:21:00;38.50;65.80
19224;DHT22;9746;47.180;9.776;2023-05-07T13:23:30;37.80;74.60
19224;DHT22;9746;47.180;9.776;2023-05-07T13:26:00;37.80;69.60
19224;DHT22;9746;47.180;9.776;2023-05-07T13:32:01;37.30;69.80
19224;DHT22;9746;47.180;9.776;2023-05-07T13:34:44;37.80;68.00
19224;DHT22;9746;47.180;9.776;2023-05-07T13:37:11;37.90;68.40
19224;DHT22;9746;47.180;9.776;2023-05-07T13:39:41;37.90;69.90
19224;DHT22;9746;47.180;9.776;2023-05-07T13:42:08;38.70;68.90
19224;DHT22;9746;47.180;9.776;2023-05-07T13:44:37;39.00;67.20
19224;DHT22;9746;47.180;9.776;2023-05-07T13:47:04;39.00;66.20
19224;DHT22;9746;47.180;9.776;2023-05-07T13:49:34;38.40;68.00
19224;DHT22;9746;47.180;9.776;2023-05-07T13:52:02;38.20;70.90
19224;DHT22;9746;47.180;9.776;2023-05-07T13:54:30;37.60;69.30
19224;DHT22;9746;47.180;9.776;2023-05-07T13:56:59;37.50;67.70
19224;DHT22;9746;47.180;9.776;2023-05-07T13:59:35;37.10;68.30
19224;DHT22;9746;47.180;9.776;2023-05-07T14:02:03;37.30;69.10
19224;DHT22;9746;47.180;9.776;2023-05-07T14:04:32;37.70;68.00
19224;DHT22;9746;47.180;9.776;2023-05-07T14:07:00;37.90;69.30
19224;DHT22;9746;47.180;9.776;2023-05-07T14:12:26;36.80;68.80
19224;DHT22;9746;47.180;9.776;2023-05-07T14:15:15;36.30;70.00
19224;DHT22;9746;47.180;9.776;2023-05-07T14:17:44;35.70;71.90
19224;DHT22;9746;47.180;9.776;2023-05-07T14:20:12;35.20;71.70
19224;DHT22;9746;47.180;9.776;2023-05-07T14:22:40;35.00;71.50
19224;DHT22;9746;47.180;9.776;2023-05-07T14:25:09;35.10;72.60
19224;DHT22;9746;47.180;9.776;2023-05-07T14:27:38;35.50;70.60
19224;DHT22;9746;47.180;9.776;2023-05-07T14:30:28;36.10;71.10
19224;DHT22;9746;47.180;9.776;2023-05-07T14:32:55;36.10;70.10
19224;DHT22;9746;47.180;9.776;2023-05-07T14:38:16;34.30;73.00
19224;DHT22;9746;47.180;9.776;2023-05-07T14:41:00;33.50;71.40
19224;DHT22;9746;47.180;9.776;2023-05-07T14:43:30;32.60;72.50
19224;DHT22;9746;47.180;9.776;2023-05-07T14:46:00;32.00;73.70
19224;DHT22;9746;47.180;9.776;2023-05-07T14:48:30;32.70;74.40
19224;DHT22;9746;47.180;9.776;2023-05-07T14:50:59;33.00;74.40
19224;DHT22;9746;47.180;9.776;2023-05-07T14:53:28;34.10;72.80
19224;DHT22;9746;47.180;9.776;2023-05-07T14:56:04;33.90;71.60
19224;DHT22;9746;47.180;9.776;2023-05-07T14:58:34;32.70;72.90
19224;DHT22;9746;47.180;9.776;2023-05-07T15:01:15;32.00;75.80
19224;DHT22;9746;47.180;9.776;2023-05-07T15:03:43;31.30;76.40
19224;DHT22;9746;47.180;9.776;2023-05-07T15:06:22;30.50;78.10
19224;DHT22;9746;47.180;9.776;2023-05-07T15:08:49;29.80;80.40
19224;DHT22;9746;47.180;9.776;2023-05-07T15:11:17;28.70;83.90
19224;DHT22;9746;47.180;9.776;2023-05-07T15:13:46;27.70;88.50
19224;DHT22;9746;47.180;9.776;2023-05-07T15:16:23;26.80;91.00
19224;DHT22;9746;47.180;9.776;2023-05-07T15:18:51;26.00;92.60
19224;DHT22;9746;47.180;9.776;2023-05-07T15:21:32;25.50;94.10
19224;DHT22;9746;47.180;9.776;2023-05-07T15:24:01;24.80;95.50
19224;DHT22;9746;47.180;9.776;2023-05-07T15:26:29;24.40;96.20
19224;DHT22;9746;47.180;9.776;2023-05-07T15:28:58;24.10;96.90
19224;DHT22;9746;47.180;9.776;2023-05-07T15:31:35;23.60;97.40
19224;DHT22;9746;47.180;9.776;2023-05-07T15:34:04;23.30;98.50
19224;DHT22;9746;47.180;9.776;2023-05-07T15:36:44;23.00;98.80
19224;DHT22;9746;47.180;9.776;2023-05-07T15:39:12;22.90;99.70
19224;DHT22;9746;47.180;9.776;2023-05-07T15:41:39;22.70;99.90
19224;DHT22;9746;47.180;9.776;2023-05-07T15:44:09;22.30;99.90
19224;DHT22;9746;47.180;9.776;2023-05-07T15:46:41;22.10;99.90
19224;DHT22;9746;47.180;9.776;2023-05-07T15:49:09;21.80;99.90
19224;DHT22;9746;47.180;9.776;2023-05-07T15:51:37;21.70;99.90
19224;DHT22;9746;47.180;9.776;2023-05-07T15:54:04;21.70;99.90
19224;DHT22;9746;47.180;9.776;2023-05-07T15:56:44;21.50;99.90
19224;DHT22;9746;47.180;9.776;2023-05-07T15:59:13;21.40;99.90
19224;DHT22;9746;47.180;9.776;2023-05-07T16:01:42;21.30;99.90
19224;DHT22;9746;47.180;9.776;2023-05-07T16:04:09;21.10;99.90
19224;DHT22;9746;47.180;9.776;2023-05-07T16:06:43;21.00;99.90
19224;DHT22;9746;47.180;9.776;2023-05-07T16:09:12;20.90;99.90
19224;DHT22;9746;47.180;9.776;2023-05-07T16:11:40;20.70;99.90
19224;DHT22;9746;47.180;9.776;2023-05-07T16:14:08;20.50;99.90
19224;DHT22;9746;47.180;9.776;2023-05-07T16:16:37;20.40;99.90
19224;DHT22;9746;47.180;9.776;2023-05-07T16:19:05;20.30;99.90
19224;DHT22;9746;47.180;9.776;2023-05-07T16:21:33;20.30;99.90
19224;DHT22;9746;47.180;9.776;2023-05-07T16:24:05;20.20;99.90
19224;DHT22;9746;47.180;9.776;2023-05-07T16:26:44;20.20;99.90
19224;DHT22;9746;47.180;9.776;2023-05-07T16:29:11;20.20;99.90
19224;DHT22;9746;47.180;9.776;2023-05-07T16:31:50;20.10;99.90
19224;DHT22;9746;47.180;9.776;2023-05-07T16:34:17;20.00;99.90
19224;DHT22;9746;47.180;9.776;2023-05-07T16:36:57;19.80;99.90
19224;DHT22;9746;47.180;9.776;2023-05-07T16:39:24;19.70;99.90
19224;DHT22;9746;47.180;9.776;2023-05-07T16:42:01;19.50;99.90
19224;DHT22;9746;47.180;9.776;2023-05-07T16:44:29;19.50;99.90
19224;DHT22;9746;47.180;9.776;2023-05-07T16:47:01;19.40;99.90
19224;DHT22;9746;47.180;9.776;2023-05-07T16:49:28;19.20;99.90
19224;DHT22;9746;47.180;9.776;2023-05-07T16:51:55;19.00;99.90
19224;DHT22;9746;47.180;9.776;2023-05-07T16:54:23;18.80;99.90
19224;DHT22;9746;47.180;9.776;2023-05-07T16:57:11;18.80;99.90
19224;DHT22;9746;47.180;9.776;2023-05-07T16:59:41;18.60;99.90
19224;DHT22;9746;47.180;9.776;2023-05-07T17:02:18;18.40;99.90
19224;DHT22;9746;47.180;9.776;2023-05-07T17:04:49;18.00;99.90
19224;DHT22;9746;47.180;9.776;2023-05-07T17:07:17;17.50;99.90
19224;DHT22;9746;47.180;9.776;2023-05-07T17:09:45;17.20;99.90
19224;DHT22;9746;47.180;9.776;2023-05-07T17:12:14;16.60;99.90
19224;DHT22;9746;47.180;9.776;2023-05-07T17:14:42;16.20;99.90
19224;DHT22;9746;47.180;9.776;2023-05-07T17:17:34;15.90;99.90
19224;DHT22;9746;47.180;9.776;2023-05-07T17:20:03;15.80;99.90
19224;DHT22;9746;47.180;9.776;2023-05-07T17:22:31;15.70;99.90
19224;DHT22;9746;47.180;9.776;2023-05-07T17:24:59;15.70;99.90
19224;DHT22;9746;47.180;9.776;2023-05-07T17:27:29;15.70;99.90
19224;DHT22;9746;47.180;9.776;2023-05-07T17:30:03;15.70;99.90
19224;DHT22;9746;47.180;9.776;2023-05-07T17:32:32;15.60;99.90
19224;DHT22;9746;47.180;9.776;2023-05-07T17:35:15;15.60;99.90
19224;DHT22;9746;47.180;9.776;2023-05-07T17:37:44;15.60;99.90
19224;DHT22;9746;47.180;9.776;2023-05-07T17:40:23;15.60;99.90
19224;DHT22;9746;47.180;9.776;2023-05-07T17:42:51;15.70;99.90
19224;DHT22;9746;47.180;9.776;2023-05-07T17:45:27;15.70;99.90
19224;DHT22;9746;47.180;9.776;2023-05-07T17:47:55;15.70;99.90
19224;DHT22;9746;47.180;9.776;2023-05-07T17:50:28;15.80;99.90
19224;DHT22;9746;47.180;9.776;2023-05-07T17:52:55;15.80;99.90
19224;DHT22;9746;47.180;9.776;2023-05-07T17:55:42;15.90;99.90
19224;DHT22;9746;47.180;9.776;2023-05-07T17:58:10;15.90;99.90
19224;DHT22;9746;47.180;9.776;2023-05-07T18:00:42;15.70;99.90
19224;DHT22;9746;47.180;9.776;2023-05-07T18:03:09;15.50;99.90
19224;DHT22;9746;47.180;9.776;2023-05-07T18:05:47;15.40;99.90
19224;DHT22;9746;47.180;9.776;2023-05-07T18:08:15;15.30;99.90
19224;DHT22;9746;47.180;9.776;2023-05-07T18:10:59;15.30;99.90
19224;DHT22;9746;47.180;9.776;2023-05-07T18:13:27;15.40;99.90
19224;DHT22;9746;47.180;9.776;2023-05-07T18:15:54;15.50;99.90
19224;DHT22;9746;47.180;9.776;2023-05-07T18:18:22;15.50;99.90
19224;DHT22;9746;47.180;9.776;2023-05-07T18:24:00;15.50;99.90
19224;DHT22;9746;47.180;9.776;2023-05-07T18:26:31;15.50;99.90
19224;DHT22;9746;47.180;9.776;2023-05-07T18:29:00;15.50;99.90
19224;DHT22;9746;47.180;9.776;2023-05-07T18:31:34;15.50;99.90
19224;DHT22;9746;47.180;9.776;2023-05-07T18:34:01;15.50;99.90
19224;DHT22;9746;47.180;9.776;2023-05-07T18:36:52;15.50;99.90
19224;DHT22;9746;47.180;9.776;2023-05-07T18:39:21;15.50;99.90
19224;DHT22;9746;47.180;9.776;2023-05-07T18:42:13;15.50;99.90
19224;DHT22;9746;47.180;9.776;2023-05-07T18:44:46;15.40;99.90
19224;DHT22;9746;47.180;9.776;2023-05-07T18:47:25;15.40;99.90
19224;DHT22;9746;47.180;9.776;2023-05-07T18:50:23;15.40;99.90
19224;DHT22;9746;47.180;9.776;2023-05-07T18:53:04;15.30;99.90
19224;DHT22;9746;47.180;9.776;2023-05-07T18:58:59;15.30;99.90
19224;DHT22;9746;47.180;9.776;2023-05-07T19:04:18;15.30;99.90
19224;DHT22;9746;47.180;9.776;2023-05-07T19:06:47;15.20;99.90
19224;DHT22;9746;47.180;9.776;2023-05-07T19:09:15;15.20;99.90
19224;DHT22;9746;47.180;9.776;2023-05-07T19:11:42;15.20;99.90
19224;DHT22;9746;47.180;9.776;2023-05-07T19:14:12;15.10;99.90
19224;DHT22;9746;47.180;9.776;2023-05-07T19:20:02;14.90;99.90
19224;DHT22;9746;47.180;9.776;2023-05-07T19:22:43;14.80;99.90
19224;DHT22;9746;47.180;9.776;2023-05-07T19:25:11;14.80;99.90
19224;DHT22;9746;47.180;9.776;2023-05-07T19:27:42;14.80;99.90
19224;DHT22;9746;47.180;9.776;2023-05-07T19:30:13;14.70;99.90
19224;DHT22;9746;47.180;9.776;2023-05-07T19:32:54;14.70;99.90
19224;DHT22;9746;47.180;9.776;2023-05-07T19:35:22;14.70;99.90
19224;DHT22;9746;47.180;9.776;2023-05-07T19:37:50;14.60;99.90
19224;DHT22;9746;47.180;9.776;2023-05-07T19:40:18;14.60;99.90
19224;DHT22;9746;47.180;9.776;2023-05-07T19:43:10;14.70;99.90
19224;DHT22;9746;47.180;9.776;2023-05-07T19:45:47;14.80;99.90
19224;DHT22;9746;47.180;9.776;2023-05-07T19:48:16;14.80;99.90
19224;DHT22;9746;47.180;9.776;2023-05-07T19:50:46;14.80;99.90
19224;DHT22;9746;47.180;9.776;2023-05-07T19:53:14;14.80;99.90
19224;DHT22;9746;47.180;9.776;2023-05-07T19:55:42;14.80;99.90
19224;DHT22;9746;47.180;9.776;2023-05-07T19:58:15;14.80;99.90
19224;DHT22;9746;47.180;9.776;2023-05-07T20:00:43;14.80;99.90
19224;DHT22;9746;47.180;9.776;2023-05-07T20:03:49;14.80;99.90
19224;DHT22;9746;47.180;9.776;2023-05-07T20:06:16;14.80;99.90
19224;DHT22;9746;47.180;9.776;2023-05-07T20:08:44;14.90;99.90
